sensor_id;sensor_type;location;lat;lon;timestamp;P1;durP1;ratioP1;P2;durP2;ratioP2
32786;SDS011;19139;49.372;8.580;2022-12-08T00:01:18;6.20;;;4.53;;
32786;SDS011;19139;49.372;8.580;2022-12-08T00:03:47;7.43;;;4.10;;
32786;SDS011;19139;49.372;8.580;2022-12-08T00:06:17;5.40;;;4.07;;
32786;SDS011;19139;49.372;8.580;2022-12-08T00:09:04;5.47;;;4.23;;
32786;SDS011;19139;49.372;8.580;2022-12-08T00:11:56;6.27;;;4.23;;
32786;SDS011;19139;49.372;8.580;2022-12-08T00:14:24;4.73;;;4.00;;
32786;SDS011;19139;49.372;8.580;2022-12-08T00:16:55;5.50;;;4.33;;
32786;SDS011;19139;49.372;8.580;2022-12-08T00:19:23;5.13;;;4.60;;
32786;SDS011;19139;49.372;8.580;2022-12-08T00:21:50;7.37;;;4.47;;
32786;SDS011;19139;49.372;8.580;2022-12-08T00:24:18;6.07;;;4.40;;
32786;SDS011;19139;49.372;8.580;2022-12-08T00:26:45;5.63;;;4.20;;
32786;SDS011;19139;49.372;8.580;2022-12-08T00:29:12;5.60;;;4.43;;
32786;SDS011;19139;49.372;8.580;2022-12-08T00:31:42;5.40;;;4.00;;
32786;SDS011;19139;49.372;8.580;2022-12-08T00:34:10;5.23;;;4.30;;
32786;SDS011;19139;49.372;8.580;2022-12-08T00:36:38;5.53;;;4.50;;
32786;SDS011;19139;49.372;8.580;2022-12-08T00:39:05;5.03;;;3.57;;
32786;SDS011;19139;49.372;8.580;2022-12-08T00:41:32;5.80;;;3.90;;
32786;SDS011;19139;49.372;8.580;2022-12-08T00:44:17;3.50;;;3.20;;
32786;SDS011;19139;49.372;8.580;2022-12-08T00:46:44;4.40;;;3.77;;
32786;SDS011;19139;49.372;8.580;2022-12-08T00:49:11;5.57;;;3.50;;
32786;SDS011;19139;49.372;8.580;2022-12-08T00:51:38;4.53;;;3.53;;
32786;SDS011;19139;49.372;8.580;2022-12-08T00:54:05;5.80;;;3.83;;
32786;SDS011;19139;49.372;8.580;2022-12-08T00:56:32;5.33;;;4.10;;
32786;SDS011;19139;49.372;8.580;2022-12-08T00:58:59;4.50;;;3.90;;
32786;SDS011;19139;49.372;8.580;2022-12-08T01:01:26;5.73;;;3.90;;
32786;SDS011;19139;49.372;8.580;2022-12-08T01:03:53;5.73;;;4.03;;
32786;SDS011;19139;49.372;8.580;2022-12-08T01:06:20;4.63;;;4.20;;
32786;SDS011;19139;49.372;8.580;2022-12-08T01:08:46;4.93;;;3.60;;
32786;SDS011;19139;49.372;8.580;2022-12-08T01:11:17;4.93;;;3.70;;
32786;SDS011;19139;49.372;8.580;2022-12-08T01:13:44;6.50;;;4.30;;
32786;SDS011;19139;49.372;8.580;2022-12-08T01:16:19;5.60;;;4.13;;
32786;SDS011;19139;49.372;8.580;2022-12-08T01:18:50;5.73;;;4.00;;
32786;SDS011;19139;49.372;8.580;2022-12-08T01:21:17;4.73;;;3.60;;
32786;SDS011;19139;49.372;8.580;2022-12-08T01:23:44;4.83;;;4.07;;
32786;SDS011;19139;49.372;8.580;2022-12-08T01:26:12;4.90;;;4.00;;
32786;SDS011;19139;49.372;8.580;2022-12-08T01:28:40;6.47;;;4.03;;
32786;SDS011;19139;49.372;8.580;2022-12-08T01:31:11;4.97;;;3.47;;
32786;SDS011;19139;49.372;8.580;2022-12-08T01:33:39;5.87;;;3.63;;
32786;SDS011;19139;49.372;8.580;2022-12-08T01:36:07;4.53;;;3.80;;
32786;SDS011;19139;49.372;8.580;2022-12-08T01:38:35;6.23;;;3.73;;
32786;SDS011;19139;49.372;8.580;2022-12-08T01:41:02;5.70;;;3.70;;
32786;SDS011;19139;49.372;8.580;2022-12-08T01:46:34;4.03;;;3.20;;
32786;SDS011;19139;49.372;8.580;2022-12-08T01:51:42;5.97;;;4.13;;
32786;SDS011;19139;49.372;8.580;2022-12-08T01:54:12;5.07;;;3.50;;
32786;SDS011;19139;49.372;8.580;2022-12-08T01:59:08;5.47;;;3.73;;
32786;SDS011;19139;49.372;8.580;2022-12-08T02:01:36;4.50;;;3.70;;
32786;SDS011;19139;49.372;8.580;2022-12-08T02:04:04;4.93;;;3.90;;
32786;SDS011;19139;49.372;8.580;2022-12-08T02:06:32;4.87;;;3.30;;
32786;SDS011;19139;49.372;8.580;2022-12-08T02:09:02;4.57;;;3.27;;
32786;SDS011;19139;49.372;8.580;2022-12-08T02:11:30;5.70;;;3.20;;
32786;SDS011;19139;49.372;8.580;2022-12-08T02:13:57;4.37;;;3.40;;
32786;SDS011;19139;49.372;8.580;2022-12-08T02:17:11;4.30;;;3.83;;
32786;SDS011;19139;49.372;8.580;2022-12-08T02:22:27;4.03;;;3.47;;
32786;SDS011;19139;49.372;8.580;2022-12-08T02:25:29;4.47;;;3.30;;
32786;SDS011;19139;49.372;8.580;2022-12-08T02:36:37;4.03;;;3.50;;
32786;SDS011;19139;49.372;8.580;2022-12-08T02:39:27;5.47;;;3.50;;
32786;SDS011;19139;49.372;8.580;2022-12-08T02:42:17;4.50;;;3.60;;
32786;SDS011;19139;49.372;8.580;2022-12-08T02:44:54;4.43;;;3.53;;
32786;SDS011;19139;49.372;8.580;2022-12-08T02:47:26;4.20;;;3.23;;
32786;SDS011;19139;49.372;8.580;2022-12-08T02:49:54;3.80;;;3.20;;
32786;SDS011;19139;49.372;8.580;2022-12-08T02:54:54;3.93;;;3.27;;
32786;SDS011;19139;49.372;8.580;2022-12-08T03:00:26;4.67;;;3.57;;
32786;SDS011;19139;49.372;8.580;2022-12-08T03:08:57;4.13;;;3.20;;
32786;SDS011;19139;49.372;8.580;2022-12-08T03:11:33;4.00;;;3.30;;
32786;SDS011;19139;49.372;8.580;2022-12-08T03:14:03;4.10;;;3.23;;
32786;SDS011;19139;49.372;8.580;2022-12-08T03:16:33;5.10;;;3.47;;
32786;SDS011;19139;49.372;8.580;2022-12-08T03:19:14;3.67;;;2.93;;
32786;SDS011;19139;49.372;8.580;2022-12-08T03:21:48;3.87;;;3.10;;
32786;SDS011;19139;49.372;8.580;2022-12-08T03:24:18;3.50;;;3.10;;
32786;SDS011;19139;49.372;8.580;2022-12-08T03:26:53;4.77;;;3.40;;
32786;SDS011;19139;49.372;8.580;2022-12-08T03:29:23;4.07;;;3.20;;
32786;SDS011;19139;49.372;8.580;2022-12-08T03:31:53;4.73;;;3.57;;
32786;SDS011;19139;49.372;8.580;2022-12-08T03:34:23;4.53;;;3.07;;
32786;SDS011;19139;49.372;8.580;2022-12-08T03:36:53;3.63;;;3.17;;
32786;SDS011;19139;49.372;8.580;2022-12-08T03:39:20;5.00;;;3.57;;
32786;SDS011;19139;49.372;8.580;2022-12-08T03:41:46;3.67;;;3.13;;
32786;SDS011;19139;49.372;8.580;2022-12-08T03:44:13;5.23;;;3.37;;
32786;SDS011;19139;49.372;8.580;2022-12-08T03:46:40;3.53;;;3.17;;
32786;SDS011;19139;49.372;8.580;2022-12-08T03:49:06;4.07;;;3.27;;
32786;SDS011;19139;49.372;8.580;2022-12-08T03:51:33;5.30;;;3.23;;
32786;SDS011;19139;49.372;8.580;2022-12-08T03:54:00;5.50;;;2.77;;
32786;SDS011;19139;49.372;8.580;2022-12-08T03:56:27;4.30;;;3.20;;
32786;SDS011;19139;49.372;8.580;2022-12-08T03:58:56;3.93;;;3.17;;
32786;SDS011;19139;49.372;8.580;2022-12-08T04:01:23;4.10;;;3.37;;
32786;SDS011;19139;49.372;8.580;2022-12-08T04:03:50;4.03;;;3.33;;
32786;SDS011;19139;49.372;8.580;2022-12-08T04:06:18;3.70;;;3.17;;
32786;SDS011;19139;49.372;8.580;2022-12-08T04:08:45;4.13;;;2.93;;
32786;SDS011;19139;49.372;8.580;2022-12-08T04:11:12;4.20;;;3.27;;
32786;SDS011;19139;49.372;8.580;2022-12-08T04:13:41;3.57;;;3.03;;
32786;SDS011;19139;49.372;8.580;2022-12-08T04:16:13;3.80;;;2.73;;
32786;SDS011;19139;49.372;8.580;2022-12-08T04:18:45;5.13;;;3.50;;
32786;SDS011;19139;49.372;8.580;2022-12-08T04:21:12;3.17;;;2.87;;
32786;SDS011;19139;49.372;8.580;2022-12-08T04:23:39;3.77;;;2.93;;
32786;SDS011;19139;49.372;8.580;2022-12-08T04:26:06;3.77;;;3.23;;
32786;SDS011;19139;49.372;8.580;2022-12-08T04:28:33;3.40;;;3.10;;
32786;SDS011;19139;49.372;8.580;2022-12-08T04:31:00;3.60;;;2.90;;
32786;SDS011;19139;49.372;8.580;2022-12-08T04:33:27;3.27;;;2.37;;
32786;SDS011;19139;49.372;8.580;2022-12-08T04:35:54;3.47;;;2.70;;
32786;SDS011;19139;49.372;8.580;2022-12-08T04:38:21;4.07;;;2.97;;
32786;SDS011;19139;49.372;8.580;2022-12-08T04:40:47;3.60;;;3.03;;
32786;SDS011;19139;49.372;8.580;2022-12-08T04:43:15;3.13;;;2.83;;
32786;SDS011;19139;49.372;8.580;2022-12-08T04:45:42;3.03;;;2.73;;
32786;SDS011;19139;49.372;8.580;2022-12-08T04:48:08;3.77;;;3.00;;
32786;SDS011;19139;49.372;8.580;2022-12-08T04:50:39;3.30;;;2.97;;
32786;SDS011;19139;49.372;8.580;2022-12-08T04:53:07;4.07;;;3.27;;
32786;SDS011;19139;49.372;8.580;2022-12-08T04:55:38;3.43;;;2.77;;
32786;SDS011;19139;49.372;8.580;2022-12-08T04:58:10;4.37;;;2.80;;
32786;SDS011;19139;49.372;8.580;2022-12-08T05:00:39;5.47;;;3.30;;
32786;SDS011;19139;49.372;8.580;2022-12-08T05:03:06;3.37;;;3.03;;
32786;SDS011;19139;49.372;8.580;2022-12-08T05:05:32;3.57;;;2.60;;
32786;SDS011;19139;49.372;8.580;2022-12-08T05:07:59;3.50;;;2.53;;
32786;SDS011;19139;49.372;8.580;2022-12-08T05:10:26;3.23;;;2.60;;
32786;SDS011;19139;49.372;8.580;2022-12-08T05:12:53;3.47;;;2.80;;
32786;SDS011;19139;49.372;8.580;2022-12-08T05:15:19;3.40;;;2.87;;
32786;SDS011;19139;49.372;8.580;2022-12-08T05:17:46;3.10;;;2.60;;
32786;SDS011;19139;49.372;8.580;2022-12-08T05:20:13;3.90;;;2.70;;
32786;SDS011;19139;49.372;8.580;2022-12-08T05:25:28;3.20;;;2.53;;
32786;SDS011;19139;49.372;8.580;2022-12-08T05:27:55;3.63;;;3.17;;
32786;SDS011;19139;49.372;8.580;2022-12-08T05:30:41;2.53;;;2.33;;
32786;SDS011;19139;49.372;8.580;2022-12-08T05:33:09;3.67;;;2.87;;
32786;SDS011;19139;49.372;8.580;2022-12-08T05:35:36;3.90;;;2.70;;
32786;SDS011;19139;49.372;8.580;2022-12-08T05:38:03;3.83;;;2.63;;
32786;SDS011;19139;49.372;8.580;2022-12-08T05:40:31;3.03;;;2.73;;
32786;SDS011;19139;49.372;8.580;2022-12-08T05:42:57;3.40;;;2.43;;
32786;SDS011;19139;49.372;8.580;2022-12-08T05:45:24;3.27;;;2.50;;
32786;SDS011;19139;49.372;8.580;2022-12-08T05:47:52;3.00;;;2.70;;
32786;SDS011;19139;49.372;8.580;2022-12-08T05:50:19;4.03;;;3.10;;
32786;SDS011;19139;49.372;8.580;2022-12-08T05:52:45;3.60;;;2.80;;
32786;SDS011;19139;49.372;8.580;2022-12-08T05:55:12;3.23;;;2.70;;
32786;SDS011;19139;49.372;8.580;2022-12-08T05:57:38;2.60;;;2.40;;
32786;SDS011;19139;49.372;8.580;2022-12-08T06:00:05;3.20;;;2.90;;
32786;SDS011;19139;49.372;8.580;2022-12-08T06:02:33;2.93;;;2.70;;
32786;SDS011;19139;49.372;8.580;2022-12-08T06:05:00;3.40;;;2.80;;
32786;SDS011;19139;49.372;8.580;2022-12-08T06:07:27;3.10;;;2.80;;
32786;SDS011;19139;49.372;8.580;2022-12-08T06:09:54;3.53;;;3.20;;
32786;SDS011;19139;49.372;8.580;2022-12-08T06:12:20;3.07;;;2.40;;
32786;SDS011;19139;49.372;8.580;2022-12-08T06:14:47;2.87;;;2.60;;
32786;SDS011;19139;49.372;8.580;2022-12-08T06:17:14;2.90;;;2.60;;
32786;SDS011;19139;49.372;8.580;2022-12-08T06:19:41;2.53;;;2.20;;
32786;SDS011;19139;49.372;8.580;2022-12-08T06:22:07;3.33;;;2.60;;
32786;SDS011;19139;49.372;8.580;2022-12-08T06:24:34;2.67;;;2.47;;
32786;SDS011;19139;49.372;8.580;2022-12-08T06:27:01;5.17;;;2.37;;
32786;SDS011;19139;49.372;8.580;2022-12-08T06:29:27;2.73;;;2.50;;
32786;SDS011;19139;49.372;8.580;2022-12-08T06:31:54;2.87;;;2.60;;
32786;SDS011;19139;49.372;8.580;2022-12-08T06:34:20;2.93;;;2.50;;
32786;SDS011;19139;49.372;8.580;2022-12-08T06:36:47;4.30;;;2.40;;
32786;SDS011;19139;49.372;8.580;2022-12-08T06:39:14;2.73;;;2.50;;
32786;SDS011;19139;49.372;8.580;2022-12-08T06:41:40;3.30;;;3.00;;
32786;SDS011;19139;49.372;8.580;2022-12-08T06:44:26;3.00;;;2.67;;
32786;SDS011;19139;49.372;8.580;2022-12-08T06:46:52;3.23;;;2.93;;
32786;SDS011;19139;49.372;8.580;2022-12-08T06:49:19;4.47;;;2.60;;
32786;SDS011;19139;49.372;8.580;2022-12-08T06:51:46;4.80;;;3.07;;
32786;SDS011;19139;49.372;8.580;2022-12-08T06:54:12;4.63;;;2.93;;
32786;SDS011;19139;49.372;8.580;2022-12-08T06:56:39;3.63;;;2.60;;
32786;SDS011;19139;49.372;8.580;2022-12-08T06:59:06;4.73;;;2.87;;
32786;SDS011;19139;49.372;8.580;2022-12-08T07:01:32;4.50;;;3.17;;
32786;SDS011;19139;49.372;8.580;2022-12-08T07:03:59;4.30;;;2.80;;
32786;SDS011;19139;49.372;8.580;2022-12-08T07:06:25;2.50;;;2.30;;
32786;SDS011;19139;49.372;8.580;2022-12-08T07:08:52;4.57;;;3.33;;
32786;SDS011;19139;49.372;8.580;2022-12-08T07:11:19;4.93;;;3.73;;
32786;SDS011;19139;49.372;8.580;2022-12-08T07:13:47;5.23;;;3.43;;
32786;SDS011;19139;49.372;8.580;2022-12-08T07:16:14;4.67;;;3.30;;
32786;SDS011;19139;49.372;8.580;2022-12-08T07:18:41;3.73;;;3.37;;
32786;SDS011;19139;49.372;8.580;2022-12-08T07:21:09;4.40;;;3.17;;
32786;SDS011;19139;49.372;8.580;2022-12-08T07:23:38;5.17;;;3.00;;
32786;SDS011;19139;49.372;8.580;2022-12-08T07:26:05;3.53;;;3.10;;
32786;SDS011;19139;49.372;8.580;2022-12-08T07:28:35;5.33;;;3.37;;
32786;SDS011;19139;49.372;8.580;2022-12-08T07:31:03;5.23;;;2.97;;
32786;SDS011;19139;49.372;8.580;2022-12-08T07:33:31;3.80;;;2.70;;
32786;SDS011;19139;49.372;8.580;2022-12-08T07:35:59;4.07;;;3.47;;
32786;SDS011;19139;49.372;8.580;2022-12-08T07:38:28;4.90;;;3.00;;
32786;SDS011;19139;49.372;8.580;2022-12-08T07:40:55;6.80;;;3.73;;
32786;SDS011;19139;49.372;8.580;2022-12-08T07:43:22;5.73;;;3.03;;
32786;SDS011;19139;49.372;8.580;2022-12-08T07:45:49;4.80;;;3.33;;
32786;SDS011;19139;49.372;8.580;2022-12-08T07:48:16;4.73;;;2.67;;
32786;SDS011;19139;49.372;8.580;2022-12-08T07:50:43;4.33;;;2.67;;
32786;SDS011;19139;49.372;8.580;2022-12-08T07:53:11;4.77;;;2.83;;
32786;SDS011;19139;49.372;8.580;2022-12-08T07:55:38;4.93;;;2.77;;
32786;SDS011;19139;49.372;8.580;2022-12-08T07:58:06;4.33;;;2.90;;
32786;SDS011;19139;49.372;8.580;2022-12-08T08:00:33;3.50;;;2.80;;
32786;SDS011;19139;49.372;8.580;2022-12-08T08:03:00;4.67;;;3.20;;
32786;SDS011;19139;49.372;8.580;2022-12-08T08:05:28;4.70;;;2.83;;
32786;SDS011;19139;49.372;8.580;2022-12-08T08:07:55;3.60;;;2.80;;
32786;SDS011;19139;49.372;8.580;2022-12-08T08:10:21;3.90;;;2.60;;
32786;SDS011;19139;49.372;8.580;2022-12-08T08:12:48;6.50;;;2.90;;
32786;SDS011;19139;49.372;8.580;2022-12-08T08:15:14;6.50;;;3.10;;
32786;SDS011;19139;49.372;8.580;2022-12-08T08:17:42;13.13;;;3.73;;
32786;SDS011;19139;49.372;8.580;2022-12-08T08:20:09;7.23;;;3.40;;
32786;SDS011;19139;49.372;8.580;2022-12-08T08:22:36;4.97;;;2.47;;
32786;SDS011;19139;49.372;8.580;2022-12-08T08:25:02;5.23;;;3.10;;
32786;SDS011;19139;49.372;8.580;2022-12-08T08:27:30;5.80;;;3.27;;
32786;SDS011;19139;49.372;8.580;2022-12-08T08:29:57;5.00;;;2.83;;
32786;SDS011;19139;49.372;8.580;2022-12-08T08:32:23;4.80;;;3.17;;
32786;SDS011;19139;49.372;8.580;2022-12-08T08:34:50;4.37;;;3.60;;
32786;SDS011;19139;49.372;8.580;2022-12-08T08:37:17;5.97;;;2.90;;
32786;SDS011;19139;49.372;8.580;2022-12-08T08:39:43;6.00;;;3.23;;
32786;SDS011;19139;49.372;8.580;2022-12-08T08:42:10;7.30;;;2.97;;
32786;SDS011;19139;49.372;8.580;2022-12-08T08:44:37;5.83;;;2.73;;
32786;SDS011;19139;49.372;8.580;2022-12-08T08:47:03;3.93;;;3.03;;
32786;SDS011;19139;49.372;8.580;2022-12-08T08:49:30;6.03;;;2.70;;
32786;SDS011;19139;49.372;8.580;2022-12-08T08:51:57;4.10;;;2.80;;
32786;SDS011;19139;49.372;8.580;2022-12-08T08:54:23;6.50;;;3.03;;
32786;SDS011;19139;49.372;8.580;2022-12-08T08:56:50;4.33;;;2.67;;
32786;SDS011;19139;49.372;8.580;2022-12-08T08:59:17;3.20;;;2.77;;
32786;SDS011;19139;49.372;8.580;2022-12-08T09:01:44;4.93;;;2.97;;
32786;SDS011;19139;49.372;8.580;2022-12-08T09:04:11;3.93;;;2.80;;
32786;SDS011;19139;49.372;8.580;2022-12-08T09:06:37;4.63;;;2.90;;
32786;SDS011;19139;49.372;8.580;2022-12-08T09:09:04;4.50;;;2.50;;
32786;SDS011;19139;49.372;8.580;2022-12-08T09:11:31;4.03;;;2.77;;
32786;SDS011;19139;49.372;8.580;2022-12-08T09:13:58;4.40;;;3.03;;
32786;SDS011;19139;49.372;8.580;2022-12-08T09:16:25;3.97;;;3.17;;
32786;SDS011;19139;49.372;8.580;2022-12-08T09:18:51;3.10;;;2.60;;
32786;SDS011;19139;49.372;8.580;2022-12-08T09:21:20;4.00;;;2.70;;
32786;SDS011;19139;49.372;8.580;2022-12-08T09:23:55;3.87;;;2.87;;
32786;SDS011;19139;49.372;8.580;2022-12-08T09:26:23;5.83;;;2.90;;
32786;SDS011;19139;49.372;8.580;2022-12-08T09:28:51;4.40;;;3.17;;
32786;SDS011;19139;49.372;8.580;2022-12-08T09:31:20;4.17;;;2.73;;
32786;SDS011;19139;49.372;8.580;2022-12-08T09:33:47;5.07;;;2.57;;
32786;SDS011;19139;49.372;8.580;2022-12-08T09:36:16;4.60;;;2.50;;
32786;SDS011;19139;49.372;8.580;2022-12-08T09:38:43;3.90;;;2.87;;
32786;SDS011;19139;49.372;8.580;2022-12-08T09:41:13;4.23;;;2.50;;
32786;SDS011;19139;49.372;8.580;2022-12-08T09:43:50;3.27;;;2.27;;
32786;SDS011;19139;49.372;8.580;2022-12-08T09:46:27;3.40;;;2.53;;
32786;SDS011;19139;49.372;8.580;2022-12-08T09:48:57;3.53;;;2.60;;
32786;SDS011;19139;49.372;8.580;2022-12-08T09:51:26;4.93;;;2.73;;
32786;SDS011;19139;49.372;8.580;2022-12-08T09:54:05;4.63;;;2.80;;
32786;SDS011;19139;49.372;8.580;2022-12-08T09:56:37;2.90;;;2.13;;
32786;SDS011;19139;49.372;8.580;2022-12-08T09:59:05;2.83;;;2.30;;
32786;SDS011;19139;49.372;8.580;2022-12-08T10:01:46;2.70;;;2.37;;
32786;SDS011;19139;49.372;8.580;2022-12-08T10:04:24;2.93;;;2.30;;
32786;SDS011;19139;49.372;8.580;2022-12-08T10:07:12;4.30;;;2.90;;
32786;SDS011;19139;49.372;8.580;2022-12-08T10:10:11;5.97;;;3.00;;
32786;SDS011;19139;49.372;8.580;2022-12-08T10:18:24;7.03;;;3.10;;
32786;SDS011;19139;49.372;8.580;2022-12-08T10:20:52;3.87;;;2.13;;
32786;SDS011;19139;49.372;8.580;2022-12-08T10:23:28;2.80;;;2.23;;
32786;SDS011;19139;49.372;8.580;2022-12-08T10:26:05;3.33;;;2.30;;
32786;SDS011;19139;49.372;8.580;2022-12-08T10:28:36;5.00;;;3.20;;
32786;SDS011;19139;49.372;8.580;2022-12-08T10:31:17;3.73;;;2.73;;
32786;SDS011;19139;49.372;8.580;2022-12-08T10:33:53;3.20;;;2.43;;
32786;SDS011;19139;49.372;8.580;2022-12-08T10:39:31;3.63;;;2.23;;
32786;SDS011;19139;49.372;8.580;2022-12-08T10:42:06;3.13;;;2.00;;
32786;SDS011;19139;49.372;8.580;2022-12-08T10:44:47;3.07;;;2.13;;
32786;SDS011;19139;49.372;8.580;2022-12-08T10:47:23;5.60;;;3.00;;
32786;SDS011;19139;49.372;8.580;2022-12-08T10:50:40;5.23;;;2.57;;
32786;SDS011;19139;49.372;8.580;2022-12-08T10:52:43;5.27;;;3.00;;
32786;SDS011;19139;49.372;8.580;2022-12-08T10:55:14;3.17;;;2.70;;
32786;SDS011;19139;49.372;8.580;2022-12-08T10:57:45;7.33;;;2.83;;
32786;SDS011;19139;49.372;8.580;2022-12-08T11:00:15;4.80;;;3.30;;
32786;SDS011;19139;49.372;8.580;2022-12-08T11:05:25;4.53;;;3.17;;
32786;SDS011;19139;49.372;8.580;2022-12-08T11:07:54;3.83;;;2.90;;
32786;SDS011;19139;49.372;8.580;2022-12-08T11:10:26;4.13;;;2.97;;
32786;SDS011;19139;49.372;8.580;2022-12-08T11:13:01;3.17;;;2.47;;
32786;SDS011;19139;49.372;8.580;2022-12-08T11:15:32;4.33;;;3.00;;
32786;SDS011;19139;49.372;8.580;2022-12-08T11:18:06;4.93;;;2.87;;
32786;SDS011;19139;49.372;8.580;2022-12-08T11:20:38;5.40;;;3.20;;
32786;SDS011;19139;49.372;8.580;2022-12-08T11:23:20;3.53;;;2.53;;
32786;SDS011;19139;49.372;8.580;2022-12-08T11:25:47;4.33;;;2.87;;
32786;SDS011;19139;49.372;8.580;2022-12-08T11:28:16;4.40;;;3.17;;
32786;SDS011;19139;49.372;8.580;2022-12-08T11:30:49;3.60;;;2.67;;
32786;SDS011;19139;49.372;8.580;2022-12-08T11:33:24;3.83;;;2.50;;
32786;SDS011;19139;49.372;8.580;2022-12-08T11:35:59;5.77;;;2.60;;
32786;SDS011;19139;49.372;8.580;2022-12-08T11:38:30;4.03;;;2.60;;
32786;SDS011;19139;49.372;8.580;2022-12-08T11:46:09;3.53;;;2.57;;
32786;SDS011;19139;49.372;8.580;2022-12-08T11:48:48;4.63;;;2.90;;
32786;SDS011;19139;49.372;8.580;2022-12-08T11:51:32;3.00;;;2.70;;
32786;SDS011;19139;49.372;8.580;2022-12-08T11:57:15;3.50;;;2.47;;
32786;SDS011;19139;49.372;8.580;2022-12-08T11:59:41;3.60;;;2.20;;
32786;SDS011;19139;49.372;8.580;2022-12-08T12:02:27;2.63;;;2.43;;
32786;SDS011;19139;49.372;8.580;2022-12-08T12:04:59;3.23;;;2.50;;
32786;SDS011;19139;49.372;8.580;2022-12-08T12:07:35;2.63;;;2.37;;
32786;SDS011;19139;49.372;8.580;2022-12-08T12:13:01;4.33;;;3.00;;
32786;SDS011;19139;49.372;8.580;2022-12-08T12:15:57;3.00;;;2.07;;
32786;SDS011;19139;49.372;8.580;2022-12-08T12:18:47;3.87;;;2.70;;
32786;SDS011;19139;49.372;8.580;2022-12-08T12:21:25;3.60;;;2.80;;
32786;SDS011;19139;49.372;8.580;2022-12-08T12:24:02;3.03;;;2.40;;
32786;SDS011;19139;49.372;8.580;2022-12-08T12:26:33;2.97;;;2.30;;
32786;SDS011;19139;49.372;8.580;2022-12-08T12:29:06;3.20;;;2.70;;
32786;SDS011;19139;49.372;8.580;2022-12-08T12:31:41;3.53;;;2.67;;
32786;SDS011;19139;49.372;8.580;2022-12-08T12:34:23;3.33;;;2.47;;
32786;SDS011;19139;49.372;8.580;2022-12-08T12:37:02;4.43;;;2.20;;
32786;SDS011;19139;49.372;8.580;2022-12-08T13:00:44;3.03;;;2.30;;
32786;SDS011;19139;49.372;8.580;2022-12-08T13:03:12;2.77;;;2.47;;
32786;SDS011;19139;49.372;8.580;2022-12-08T13:05:47;2.73;;;2.50;;
32786;SDS011;19139;49.372;8.580;2022-12-08T13:10:48;3.27;;;2.53;;
32786;SDS011;19139;49.372;8.580;2022-12-08T13:13:25;4.30;;;2.77;;
32786;SDS011;19139;49.372;8.580;2022-12-08T13:18:51;4.30;;;3.20;;
32786;SDS011;19139;49.372;8.580;2022-12-08T13:21:22;2.90;;;2.53;;
32786;SDS011;19139;49.372;8.580;2022-12-08T13:29:28;3.07;;;2.57;;
32786;SDS011;19139;49.372;8.580;2022-12-08T13:34:42;3.30;;;2.83;;
32786;SDS011;19139;49.372;8.580;2022-12-08T13:37:20;3.67;;;2.80;;
32786;SDS011;19139;49.372;8.580;2022-12-08T13:40:17;3.00;;;2.40;;
32786;SDS011;19139;49.372;8.580;2022-12-08T13:42:50;2.13;;;2.00;;
32786;SDS011;19139;49.372;8.580;2022-12-08T13:45:41;2.97;;;2.43;;
32786;SDS011;19139;49.372;8.580;2022-12-08T13:51:37;3.80;;;2.90;;
32786;SDS011;19139;49.372;8.580;2022-12-08T13:54:29;2.70;;;2.20;;
32786;SDS011;19139;49.372;8.580;2022-12-08T13:57:25;2.73;;;2.30;;
32786;SDS011;19139;49.372;8.580;2022-12-08T13:59:58;3.30;;;2.43;;
32786;SDS011;19139;49.372;8.580;2022-12-08T14:02:46;3.03;;;2.57;;
32786;SDS011;19139;49.372;8.580;2022-12-08T14:05:15;3.47;;;2.40;;
32786;SDS011;19139;49.372;8.580;2022-12-08T14:07:52;2.93;;;2.30;;
32786;SDS011;19139;49.372;8.580;2022-12-08T14:10:22;2.90;;;2.50;;
32786;SDS011;19139;49.372;8.580;2022-12-08T14:12:54;2.70;;;2.33;;
32786;SDS011;19139;49.372;8.580;2022-12-08T14:15:28;3.00;;;2.70;;
32786;SDS011;19139;49.372;8.580;2022-12-08T14:18:03;3.37;;;2.23;;
32786;SDS011;19139;49.372;8.580;2022-12-08T14:20:31;2.40;;;2.20;;
32786;SDS011;19139;49.372;8.580;2022-12-08T14:23:19;3.00;;;2.37;;
32786;SDS011;19139;49.372;8.580;2022-12-08T14:25:46;2.80;;;2.50;;
32786;SDS011;19139;49.372;8.580;2022-12-08T14:28:13;2.80;;;2.60;;
32786;SDS011;19139;49.372;8.580;2022-12-08T14:30:40;2.70;;;2.40;;
32786;SDS011;19139;49.372;8.580;2022-12-08T14:33:08;2.67;;;2.37;;
32786;SDS011;19139;49.372;8.580;2022-12-08T14:35:39;2.90;;;2.57;;
32786;SDS011;19139;49.372;8.580;2022-12-08T14:38:12;3.10;;;2.23;;
32786;SDS011;19139;49.372;8.580;2022-12-08T14:40:42;3.47;;;2.43;;
32786;SDS011;19139;49.372;8.580;2022-12-08T14:43:12;4.63;;;2.47;;
32786;SDS011;19139;49.372;8.580;2022-12-08T14:51:12;3.27;;;2.67;;
32786;SDS011;19139;49.372;8.580;2022-12-08T14:56:20;3.00;;;2.70;;
32786;SDS011;19139;49.372;8.580;2022-12-08T14:58:48;3.57;;;2.17;;
32786;SDS011;19139;49.372;8.580;2022-12-08T15:01:27;2.70;;;2.43;;
32786;SDS011;19139;49.372;8.580;2022-12-08T15:03:59;2.30;;;2.00;;
32786;SDS011;19139;49.372;8.580;2022-12-08T15:06:27;3.60;;;2.50;;
32786;SDS011;19139;49.372;8.580;2022-12-08T15:08:55;4.43;;;1.97;;
32786;SDS011;19139;49.372;8.580;2022-12-08T15:11:29;2.53;;;2.20;;
32786;SDS011;19139;49.372;8.580;2022-12-08T15:13:59;2.20;;;1.80;;
32786;SDS011;19139;49.372;8.580;2022-12-08T15:16:27;2.40;;;2.20;;
32786;SDS011;19139;49.372;8.580;2022-12-08T15:21:42;2.63;;;1.87;;
32786;SDS011;19139;49.372;8.580;2022-12-08T15:24:10;2.70;;;1.93;;
32786;SDS011;19139;49.372;8.580;2022-12-08T15:26:39;2.27;;;2.07;;
32786;SDS011;19139;49.372;8.580;2022-12-08T15:29:10;2.40;;;2.20;;
32786;SDS011;19139;49.372;8.580;2022-12-08T15:31:39;1.90;;;1.77;;
32786;SDS011;19139;49.372;8.580;2022-12-08T15:34:06;2.20;;;1.80;;
32786;SDS011;19139;49.372;8.580;2022-12-08T15:36:32;2.47;;;2.20;;
32786;SDS011;19139;49.372;8.580;2022-12-08T15:38:59;2.03;;;1.83;;
32786;SDS011;19139;49.372;8.580;2022-12-08T15:41:26;2.53;;;2.33;;
32786;SDS011;19139;49.372;8.580;2022-12-08T15:43:52;2.10;;;1.90;;
32786;SDS011;19139;49.372;8.580;2022-12-08T15:46:19;3.30;;;2.00;;
32786;SDS011;19139;49.372;8.580;2022-12-08T15:48:45;2.57;;;2.37;;
32786;SDS011;19139;49.372;8.580;2022-12-08T15:51:12;2.13;;;1.93;;
32786;SDS011;19139;49.372;8.580;2022-12-08T15:53:39;2.40;;;2.10;;
32786;SDS011;19139;49.372;8.580;2022-12-08T15:56:05;3.07;;;2.33;;
32786;SDS011;19139;49.372;8.580;2022-12-08T15:58:53;2.53;;;2.00;;
32786;SDS011;19139;49.372;8.580;2022-12-08T16:01:22;2.20;;;2.00;;
32786;SDS011;19139;49.372;8.580;2022-12-08T16:03:49;3.07;;;1.97;;
32786;SDS011;19139;49.372;8.580;2022-12-08T16:06:37;2.37;;;2.17;;
32786;SDS011;19139;49.372;8.580;2022-12-08T16:11:57;2.50;;;2.30;;
32786;SDS011;19139;49.372;8.580;2022-12-08T16:14:43;2.33;;;1.97;;
32786;SDS011;19139;49.372;8.580;2022-12-08T16:17:29;2.30;;;2.10;;
32786;SDS011;19139;49.372;8.580;2022-12-08T16:19:56;2.60;;;2.40;;
32786;SDS011;19139;49.372;8.580;2022-12-08T16:22:27;2.60;;;2.10;;
32786;SDS011;19139;49.372;8.580;2022-12-08T16:25:15;3.43;;;2.13;;
32786;SDS011;19139;49.372;8.580;2022-12-08T16:27:45;2.97;;;2.27;;
32786;SDS011;19139;49.372;8.580;2022-12-08T16:30:33;2.27;;;2.07;;
32786;SDS011;19139;49.372;8.580;2022-12-08T16:33:00;2.47;;;2.27;;
32786;SDS011;19139;49.372;8.580;2022-12-08T16:35:26;2.40;;;2.20;;
32786;SDS011;19139;49.372;8.580;2022-12-08T16:37:53;2.40;;;2.10;;
32786;SDS011;19139;49.372;8.580;2022-12-08T16:40:20;2.30;;;2.10;;
32786;SDS011;19139;49.372;8.580;2022-12-08T16:42:47;5.40;;;2.57;;
32786;SDS011;19139;49.372;8.580;2022-12-08T16:45:16;2.50;;;1.90;;
32786;SDS011;19139;49.372;8.580;2022-12-08T16:47:44;2.03;;;1.83;;
32786;SDS011;19139;49.372;8.580;2022-12-08T16:50:36;2.40;;;2.00;;
32786;SDS011;19139;49.372;8.580;2022-12-08T16:53:04;2.10;;;1.83;;
32786;SDS011;19139;49.372;8.580;2022-12-08T16:55:32;3.07;;;1.73;;
32786;SDS011;19139;49.372;8.580;2022-12-08T16:58:00;2.80;;;2.10;;